Terminal Aerodrome Forecast
Issued by NWS Raleigh/Durham, NC

Home | Current Version | Previous Version | Text Only | Print | Product List | Glossary On
Versions: 1 2 3 4 5 6 7 8 9 10 11 12 13 14 15 16 17 18 19 20 21 22 23 24 25 26 27 28 29 30 31 32 33 34 35 36 37 38
000
FTUS42 KRAH 250540
TAFRDU
TAF
KRDU 250540Z 2506/2606 00000KT P6SM SCT250
     FM251100 13002KT P6SM BKN100
     FM251500 12004KT 5SM -RA OVC025
     FM252000 VRB05KT 4SM -RA BR OVC007
     FM260300 VRB03KT 2SM -RA BR OVC005=

USA.gov is the U.S. government's official web portal to all federal, state and local government web resources and services.